Terminal Aerodrome Forecast
Issued by NWS Wilmington, OH

Home | Current Version | Previous Version | Text Only | Print | Product List | Glossary On
Versions: 1 2 3 4 5 6 7 8 9 10 11 12 13 14 15 16 17 18
000
FTUS41 KILN 010800 AAA
TAFDAY
TAF AMD
KDAY 010802Z 0108/0206 20006KT P6SM BKN005
     FM011000 21006KT 4SM BR OVC008
     FM011400 21010KT P6SM BKN015
     FM011700 21015G23KT P6SM SCT030
     FM020100 21008KT P6SM VCSH BKN040=

USA.gov is the U.S. government's official web portal to all federal, state and local government web resources and services.